Juntura, OR

3:51 AM MDT on October 20, 2014 (GMT -0600)
Burns Municipal | Change Station
CLOSE
Current Station
Airport
Location: Burns,
Elevation: 4170 ft
Nearby Weather Stations

Elev 4170 ft 43.60 °N, 118.96 °W | Updated 58 minutes ago

Clear
Clear
31 °F
Feels Like 28 °F
N
4
Wind Variable Wind from North

Today
High -- | Low -- °F
--% Chance of Precip.
Yesterday
High -- | Low -- °F
Precip. -- in
8:12 AM 7:00 PM
Waning Crescent, 12% visible
Pressure 29.88 in
Visibility 10.0 miles
Clouds Clear
Windchill 28 °F
Dew Point 22 °F
Humidity 69%
Rainfall 0.00 in
Snow Depth Not available.
UV 0 out of 12
Pollen 2.70 out of 12
Air Quality Not available.
Flu Activity Sporadic
METAR KBNO 200853Z AUTO 01003KT 10SM CLR M01/M06 A2991 RMK AO2 SLP118 T10061056 53004

More Conditions Fewer Conditions

Pressure 29.88 in
Visibility 10.0 miles
Clouds Clear
Windchill 28 °F
Dew Point 22 °F
Humidity 69%
Rainfall 0.00 in
Snow Depth Not available.
UV 0 out of 12
Pollen 2.70 out of 12
Air Quality Not available.
Flu Activity Sporadic
METAR KBNO 200853Z AUTO 01003KT 10SM CLR M01/M06 A2991 RMK AO2 SLP118 T10061056 53004

More Conditions Fewer Conditions

10-Day Weather Forecast

Almanac

Astronomy

Oct. 20, 2014 Rise Set
Actual Time 8:12 AM MDT 7:00 PM MDT
Civil Twilight 7:43 AM MDT 7:29 PM MDT
Nautical Twilight 7:10 AM MDT 8:03 PM MDT
Astronomical Twilight 6:37 AM MDT 8:36 PM MDT
Moon 4:59 AM MDT 5:30 PM MDT
Length of Visible Light 11h 45m
Length of Day
10h 47m
Waning Crescent, 12% of the Moon is Illuminated
Today
Waning Crescent
Oct 23
New
Oct 30
First Quarter
Nov 6
Full
Nov 14
Last Quarter

Today's Extremes

State Highs State Lows

Community

WunderPhotos

Upload Photos

1,763,325 photos uploaded!

Nearby

Snow Depth

Station Depth Elevation
Lake Creek R.S. 0 in 5200 ft
Blue Mountain Spring 0 in 5900 ft
Starr Ridge 0 in 5300 ft
Tipton 0 in 5150 ft
Gold Center 0 in 5340 ft

Earthquake Activity

City Distance Mag. Time & Date
No recent earthquake activity has been reported nearby.
Minimum magnitude displayed is 2.5.

Coastal Water Temperatures

Place Temperature
No Stations Reporting

Nearby Weather Stations